createdAt,value
2024-04-18T00:00:53.714Z,36.61
2024-04-18T00:01:53.611Z,36.59
2024-04-18T00:02:53.621Z,36.57
2024-04-18T00:03:53.795Z,36.53
2024-04-18T00:04:53.779Z,36.47
2024-04-18T00:05:53.731Z,36.44
2024-04-18T00:06:53.768Z,36.42
2024-04-18T00:07:53.742Z,36.38
2024-04-18T00:08:53.763Z,36.35
2024-04-18T00:09:53.766Z,36.32
2024-04-18T00:10:53.883Z,36.30
2024-04-18T00:11:53.898Z,36.26
2024-04-18T00:12:53.933Z,36.23
2024-04-18T00:13:54.018Z,36.19
2024-04-18T00:14:54.069Z,36.16
2024-04-18T00:15:54.204Z,36.10
2024-04-18T00:16:54.225Z,36.09
2024-04-18T00:17:54.715Z,36.05
2024-04-18T00:18:54.389Z,36.02
2024-04-18T00:19:54.437Z,35.98
2024-04-18T00:20:54.503Z,35.97
2024-04-18T00:21:54.563Z,35.94
2024-04-18T00:22:54.640Z,35.89
2024-04-18T00:23:54.689Z,35.86
2024-04-18T00:24:54.737Z,35.85
2024-04-18T00:25:54.803Z,35.83
2024-04-18T00:26:54.865Z,35.80
2024-04-18T00:27:54.924Z,35.76
2024-04-18T00:28:54.970Z,35.74
2024-04-18T00:29:55.028Z,35.71
2024-04-18T00:30:55.115Z,35.69
2024-04-18T00:31:55.272Z,35.67
2024-04-18T00:32:55.241Z,35.66
2024-04-18T00:33:55.310Z,35.61
2024-04-18T00:34:55.300Z,35.60
2024-04-18T00:35:55.389Z,35.58
2024-04-18T00:36:55.414Z,35.58
2024-04-18T00:37:55.497Z,35.53
2024-04-18T00:38:55.586Z,35.52
2024-04-18T00:39:55.671Z,35.50
2024-04-18T00:40:55.625Z,35.48
2024-04-18T00:41:55.722Z,35.45
2024-04-18T00:42:55.729Z,35.44
2024-04-18T00:43:55.840Z,35.41
2024-04-18T00:44:55.846Z,35.41
2024-04-18T00:45:55.928Z,35.39
2024-04-18T00:46:55.954Z,35.36
2024-04-18T00:47:55.996Z,35.34
2024-04-18T00:48:56.121Z,35.32
2024-04-18T00:49:56.082Z,35.31
2024-04-18T00:50:56.132Z,35.28
2024-04-18T00:51:56.204Z,35.27
2024-04-18T00:52:56.242Z,35.25
2024-04-18T00:53:56.324Z,35.23
2024-04-18T00:54:56.316Z,35.22
2024-04-18T00:55:56.371Z,35.22
2024-04-18T00:56:56.434Z,35.21
2024-04-18T00:57:56.446Z,35.19
2024-04-18T00:58:56.453Z,35.17
2024-04-18T00:59:56.494Z,35.17
2024-04-18T01:00:56.621Z,35.15
2024-04-18T01:01:56.579Z,35.13
2024-04-18T01:02:56.620Z,35.13
2024-04-18T01:03:56.911Z,35.12
2024-04-18T01:04:56.703Z,35.09
2024-04-18T01:05:56.700Z,35.11
2024-04-18T01:06:56.754Z,35.08
2024-04-18T01:07:56.960Z,35.07
2024-04-18T01:08:56.837Z,35.07
2024-04-18T01:09:56.872Z,35.06
2024-04-18T01:10:56.935Z,35.06
2024-04-18T01:11:56.957Z,35.03
2024-04-18T01:12:56.972Z,35.03
2024-04-18T01:13:57.005Z,35.02
2024-04-18T01:14:57.139Z,35.00
2024-04-18T01:15:57.094Z,35.02
2024-04-18T01:16:57.118Z,35.01
2024-04-18T01:17:57.263Z,34.99
2024-04-18T01:18:57.241Z,35.01
2024-04-18T01:19:57.221Z,34.99
2024-04-18T01:20:57.246Z,35.00
2024-04-18T01:21:59.502Z,34.96
2024-04-18T01:22:57.287Z,34.95
2024-04-18T01:23:57.285Z,34.97
2024-04-18T01:24:57.339Z,34.94
2024-04-18T01:25:57.275Z,34.96
2024-04-18T01:26:57.283Z,34.94
2024-04-18T01:27:57.277Z,34.93
2024-04-18T01:28:57.282Z,34.93
2024-04-18T01:29:57.294Z,34.91
2024-04-18T01:31:04.948Z,34.92
2024-04-18T01:32:04.933Z,34.94
2024-04-18T01:33:05.016Z,34.93
2024-04-18T01:34:04.976Z,34.91
2024-04-18T01:35:04.910Z,34.89
2024-04-18T01:36:04.917Z,34.88
2024-04-18T01:37:04.923Z,34.87
2024-04-18T01:38:04.923Z,34.88
2024-04-18T01:39:04.930Z,34.87
2024-04-18T01:40:04.935Z,34.86
2024-04-18T01:41:04.943Z,34.85
2024-04-18T01:42:04.932Z,34.83
2024-04-18T01:43:04.937Z,34.83
2024-04-18T01:44:04.930Z,34.84
2024-04-18T01:45:04.947Z,34.81
2024-04-18T01:46:04.948Z,34.82
2024-04-18T01:47:04.940Z,34.80
2024-04-18T01:48:05.090Z,34.79
2024-04-18T01:49:04.964Z,34.82
2024-04-18T01:50:04.968Z,34.79
2024-04-18T01:51:04.967Z,34.78
2024-04-18T01:52:04.967Z,34.78
2024-04-18T01:53:05.040Z,34.77
2024-04-18T01:54:04.950Z,34.78
2024-04-18T01:55:04.971Z,34.76
2024-04-18T01:56:04.967Z,34.76
2024-04-18T01:57:04.964Z,34.73
2024-04-18T01:58:04.956Z,34.73
2024-04-18T01:59:04.961Z,34.74
2024-04-18T02:00:04.958Z,34.73
2024-04-18T02:01:05.067Z,34.73
2024-04-18T02:02:04.957Z,34.73
2024-04-18T02:03:04.986Z,34.72
2024-04-18T02:04:05.115Z,34.72
2024-04-18T02:05:05.048Z,34.69
2024-04-18T02:06:05.011Z,34.68
2024-04-18T02:07:05.022Z,34.67
2024-04-18T02:08:05.072Z,34.67
2024-04-18T02:09:05.113Z,34.66
2024-04-18T02:10:05.168Z,34.66
2024-04-18T02:11:05.279Z,34.66
2024-04-18T02:12:05.153Z,34.68
2024-04-18T02:13:05.232Z,34.66
2024-04-18T02:14:05.213Z,34.65
2024-04-18T02:15:05.220Z,34.65
2024-04-18T02:16:05.291Z,34.63
2024-04-18T02:17:05.272Z,34.64
2024-04-18T02:18:05.307Z,34.62
2024-04-18T02:19:05.329Z,34.61
2024-04-18T02:20:05.309Z,34.63
2024-04-18T02:21:05.380Z,34.63
2024-04-18T02:22:05.409Z,34.62
2024-04-18T02:23:05.436Z,34.61
2024-04-18T02:24:05.460Z,34.61
2024-04-18T02:25:05.469Z,34.60
2024-04-18T02:26:05.500Z,34.59
2024-04-18T02:27:05.519Z,34.58
2024-04-18T02:28:05.531Z,34.58
2024-04-18T02:29:05.556Z,34.58
2024-04-18T02:30:05.564Z,34.58
2024-04-18T02:31:05.614Z,34.55
2024-04-18T02:32:05.623Z,34.55
2024-04-18T02:33:05.642Z,34.57
2024-04-18T02:34:05.654Z,34.55
2024-04-18T02:35:05.657Z,34.55
2024-04-18T02:36:05.659Z,34.53
2024-04-18T02:37:05.672Z,34.53
2024-04-18T02:38:05.679Z,34.53
2024-04-18T02:39:05.684Z,34.53
2024-04-18T02:40:05.703Z,34.53
2024-04-18T02:41:05.734Z,34.51
2024-04-18T02:42:05.737Z,34.50
2024-04-18T02:43:05.739Z,34.50
2024-04-18T02:44:05.761Z,34.49
2024-04-18T02:45:05.760Z,34.48
2024-04-18T02:46:05.775Z,34.50
2024-04-18T02:47:05.785Z,34.52
2024-04-18T02:48:05.822Z,34.49
2024-04-18T02:49:05.868Z,34.48
2024-04-18T02:50:05.824Z,34.46
2024-04-18T02:51:05.833Z,34.48
2024-04-18T02:52:05.843Z,34.45
2024-04-18T02:53:05.879Z,34.46
2024-04-18T02:54:05.888Z,34.45
2024-04-18T02:55:05.907Z,34.45
2024-04-18T02:56:05.902Z,34.44
2024-04-18T02:57:05.905Z,34.43
2024-04-18T02:58:07.735Z,34.44
2024-04-18T02:59:05.949Z,34.43
2024-04-18T03:00:05.944Z,34.43
2024-04-18T03:01:06.061Z,34.44
2024-04-18T03:02:05.936Z,34.42
2024-04-18T03:03:05.989Z,34.42
2024-04-18T03:04:06.022Z,34.42
2024-04-18T03:05:05.935Z,34.44
2024-04-18T03:06:05.975Z,34.43
2024-04-18T03:07:05.941Z,34.40
2024-04-18T03:08:05.954Z,34.39
2024-04-18T03:09:05.965Z,34.40
2024-04-18T03:10:05.956Z,34.39
2024-04-18T03:11:06.014Z,34.39
2024-04-18T03:12:05.949Z,34.37
2024-04-18T03:13:05.956Z,34.40
2024-04-18T03:14:05.956Z,34.38
2024-04-18T03:15:05.954Z,34.40
2024-04-18T03:16:06.005Z,34.38
2024-04-18T03:17:05.985Z,34.38
2024-04-18T03:18:06.069Z,34.42
2024-04-18T03:19:05.990Z,34.38
2024-04-18T03:20:05.967Z,34.40
2024-04-18T03:21:05.995Z,34.40
2024-04-18T03:22:05.943Z,34.41
2024-04-18T03:23:05.945Z,34.39
2024-04-18T03:24:05.955Z,34.40
2024-04-18T03:25:05.958Z,34.40
2024-04-18T03:26:05.953Z,34.38
2024-04-18T03:27:05.971Z,34.40
2024-04-18T03:28:05.974Z,34.38
2024-04-18T03:29:05.968Z,34.40
2024-04-18T03:30:05.961Z,34.38
2024-04-18T03:31:06.017Z,34.39
2024-04-18T03:32:06.052Z,34.41
2024-04-18T03:33:05.992Z,34.40
2024-04-18T03:34:05.972Z,34.39
2024-04-18T03:35:05.999Z,34.40
2024-04-18T03:36:05.984Z,34.38
2024-04-18T03:37:05.967Z,34.38
2024-04-18T03:38:05.990Z,34.39
2024-04-18T03:39:05.973Z,34.38
2024-04-18T03:40:05.967Z,34.39
2024-04-18T03:41:05.965Z,34.39
2024-04-18T03:42:05.978Z,34.40
2024-04-18T03:43:05.977Z,34.39
2024-04-18T03:44:05.981Z,34.40
2024-04-18T03:45:05.994Z,34.40
2024-04-18T03:46:06.010Z,34.40
2024-04-18T03:47:06.021Z,34.41
2024-04-18T03:48:06.035Z,34.39
2024-04-18T03:49:06.158Z,34.40
2024-04-18T03:50:05.986Z,34.41
2024-04-18T03:51:05.994Z,34.42
2024-04-18T03:52:05.992Z,34.40
2024-04-18T03:53:05.987Z,34.43
2024-04-18T03:54:05.994Z,34.41
2024-04-18T03:55:06.019Z,34.42
2024-04-18T03:56:05.990Z,34.42
2024-04-18T03:57:05.992Z,34.43
2024-04-18T03:58:05.994Z,34.43
2024-04-18T03:59:05.986Z,34.43
2024-04-18T04:00:06.028Z,34.46
2024-04-18T04:01:06.109Z,34.45
2024-04-18T04:02:06.060Z,34.47
2024-04-18T04:03:06.008Z,34.45
2024-04-18T04:04:06.125Z,34.45
2024-04-18T04:05:05.982Z,34.45
2024-04-18T04:06:06.006Z,34.46
2024-04-18T04:07:05.995Z,34.47
2024-04-18T04:08:05.991Z,34.44
2024-04-18T04:09:05.999Z,34.44
2024-04-18T04:10:05.992Z,34.46
2024-04-18T04:11:06.010Z,34.45
2024-04-18T04:12:05.993Z,34.49
2024-04-18T04:13:06.001Z,34.48
2024-04-18T04:14:06.009Z,34.46
2024-04-18T04:15:05.985Z,34.47
2024-04-18T04:16:06.024Z,34.47
2024-04-18T04:17:13.383Z,34.47
2024-04-18T04:18:06.080Z,34.49
2024-04-18T04:19:06.079Z,34.47
2024-04-18T04:20:05.983Z,34.48
2024-04-18T04:21:05.992Z,34.47
2024-04-18T04:22:05.985Z,34.47
2024-04-18T04:23:06.001Z,34.46
2024-04-18T04:24:06.003Z,34.44
2024-04-18T04:25:06.009Z,34.46
2024-04-18T04:26:06.023Z,34.45
2024-04-18T04:27:05.982Z,34.49
2024-04-18T04:28:06.001Z,34.48
2024-04-18T04:29:06.001Z,34.46
2024-04-18T04:30:06.002Z,34.46
2024-04-18T04:31:08.413Z,34.47
2024-04-18T04:32:06.046Z,34.48
2024-04-18T04:33:06.053Z,34.48
2024-04-18T04:34:06.059Z,34.45
2024-04-18T04:35:06.773Z,34.47
2024-04-18T04:36:06.057Z,34.47
2024-04-18T04:37:06.053Z,34.47
2024-04-18T04:38:06.077Z,34.46
2024-04-18T04:39:06.082Z,34.46
2024-04-18T04:40:06.107Z,34.48
2024-04-18T04:41:06.118Z,34.47
2024-04-18T04:42:06.153Z,34.46
2024-04-18T04:43:06.195Z,34.48
2024-04-18T04:44:06.231Z,34.46
2024-04-18T04:45:06.210Z,34.48
2024-04-18T04:46:06.262Z,34.46
2024-04-18T04:47:06.256Z,34.45
2024-04-18T04:48:06.407Z,34.48
2024-04-18T04:49:06.332Z,34.46
2024-04-18T04:50:06.307Z,34.46
2024-04-18T04:51:16.362Z,34.46
2024-04-18T04:52:06.316Z,34.49
2024-04-18T04:53:06.327Z,34.47
2024-04-18T04:54:06.306Z,34.46
2024-04-18T04:55:06.321Z,34.46
2024-04-18T04:56:06.326Z,34.44
2024-04-18T04:57:06.314Z,34.48
2024-04-18T04:58:06.320Z,34.46
2024-04-18T04:59:06.319Z,34.46
2024-04-18T05:00:06.328Z,34.45
2024-04-18T05:01:06.385Z,34.43
2024-04-18T05:02:06.384Z,34.43
2024-04-18T05:03:06.340Z,34.42
2024-04-18T05:04:06.441Z,34.42
2024-04-18T05:05:06.326Z,34.43
2024-04-18T05:06:06.328Z,34.43
2024-04-18T05:07:06.325Z,34.42
2024-04-18T05:08:06.329Z,34.45
2024-04-18T05:09:06.347Z,34.43
2024-04-18T05:10:06.336Z,34.44
2024-04-18T05:11:11.399Z,34.42
2024-04-18T05:12:06.343Z,34.44
2024-04-18T05:13:06.328Z,34.43
2024-04-18T05:14:06.335Z,34.43
2024-04-18T05:15:06.328Z,34.43
2024-04-18T05:16:06.392Z,34.42
2024-04-18T05:17:06.341Z,34.40
2024-04-18T05:18:06.414Z,34.41
2024-04-18T05:19:06.348Z,34.41
2024-04-18T05:20:06.327Z,34.40
2024-04-18T05:21:06.332Z,34.40
2024-04-18T05:22:06.367Z,34.39
2024-04-18T05:23:06.344Z,34.41
2024-04-18T05:24:06.327Z,34.39
2024-04-18T05:25:06.329Z,34.38
2024-04-18T05:26:06.334Z,34.40
2024-04-18T05:27:06.340Z,34.37
2024-04-18T05:28:06.344Z,34.38
2024-04-18T05:29:06.333Z,34.39
2024-04-18T05:30:06.329Z,34.39
2024-04-18T05:31:06.604Z,34.38
2024-04-18T05:32:06.387Z,34.37
2024-04-18T05:33:06.382Z,34.37
2024-04-18T05:34:06.407Z,34.36
2024-04-18T05:35:06.387Z,34.35
2024-04-18T05:36:06.411Z,34.36
2024-04-18T05:37:06.896Z,34.36
2024-04-18T05:38:06.443Z,34.36
2024-04-18T05:39:06.428Z,34.35
2024-04-18T05:40:06.557Z,34.35
2024-04-18T05:41:06.475Z,34.36
2024-04-18T05:42:06.485Z,34.34
2024-04-18T05:43:06.483Z,34.35
2024-04-18T05:44:06.517Z,34.34
2024-04-18T05:45:06.529Z,34.35
2024-04-18T05:46:06.534Z,34.33
2024-04-18T05:47:06.591Z,34.31
2024-04-18T05:48:06.645Z,34.30
2024-04-18T05:49:06.548Z,34.33
2024-04-18T05:50:06.572Z,34.32
2024-04-18T05:51:06.559Z,34.30
2024-04-18T05:52:06.644Z,34.35
2024-04-18T05:53:06.589Z,34.33
2024-04-18T05:54:06.604Z,34.34
2024-04-18T05:55:06.612Z,34.33
2024-04-18T05:56:06.611Z,34.36
2024-04-18T05:57:06.615Z,34.37
2024-04-18T05:58:06.633Z,34.32
2024-04-18T05:59:06.663Z,34.35
2024-04-18T06:00:06.670Z,34.35
2024-04-18T06:01:06.862Z,34.36
2024-04-18T06:02:08.099Z,34.38
2024-04-18T06:03:06.788Z,34.46
2024-04-18T06:04:14.373Z,34.71
2024-04-18T06:05:14.313Z,35.02
2024-04-18T06:06:14.343Z,35.02
2024-04-18T06:07:14.310Z,35.19
2024-04-18T06:08:14.324Z,35.43
2024-04-18T06:09:14.333Z,35.45
2024-04-18T06:10:14.340Z,35.50
2024-04-18T06:11:14.356Z,35.56
2024-04-18T06:12:14.320Z,35.73
2024-04-18T06:13:14.324Z,36.08
2024-04-18T06:14:14.332Z,36.44
2024-04-18T06:15:14.333Z,36.36
2024-04-18T06:16:14.368Z,36.33
2024-04-18T06:17:14.321Z,36.58
2024-04-18T06:18:14.326Z,36.35
2024-04-18T06:19:14.347Z,36.30
2024-04-18T06:20:14.332Z,36.41
2024-04-18T06:21:14.343Z,36.31
2024-04-18T06:22:14.372Z,36.39
2024-04-18T06:23:14.351Z,36.25
2024-04-18T06:24:14.398Z,36.24
2024-04-18T06:25:14.473Z,36.30
2024-04-18T06:26:14.570Z,36.35
2024-04-18T06:27:14.550Z,36.19
2024-04-18T06:28:14.613Z,36.38
2024-04-18T06:29:14.728Z,36.31
2024-04-18T06:30:14.807Z,36.64
2024-04-18T06:31:14.796Z,36.31
2024-04-18T06:32:14.891Z,36.46
2024-04-18T06:33:14.997Z,36.32
2024-04-18T06:34:15.000Z,36.36
2024-04-18T06:35:15.041Z,36.46
2024-04-18T06:36:15.979Z,36.46
2024-04-18T06:37:15.168Z,36.26
2024-04-18T06:38:15.260Z,36.02
2024-04-18T06:39:15.249Z,35.88
2024-04-18T06:40:15.309Z,35.80
2024-04-18T06:41:15.335Z,35.78
2024-04-18T06:42:15.390Z,35.71
2024-04-18T06:43:15.423Z,35.87
2024-04-18T06:44:15.584Z,35.75
2024-04-18T06:45:15.537Z,35.54
2024-04-18T06:46:15.675Z,35.46
2024-04-18T06:47:15.687Z,35.42
2024-04-18T06:48:15.710Z,35.38
2024-04-18T06:49:15.709Z,35.37
2024-04-18T06:50:15.693Z,35.33
2024-04-18T06:51:15.737Z,35.70
2024-04-18T06:52:15.774Z,33.54
2024-04-18T06:53:15.844Z,32.29
2024-04-18T06:54:15.892Z,31.40
2024-04-18T06:55:15.930Z,30.80
2024-04-18T06:56:16.438Z,31.44
2024-04-18T06:57:15.977Z,30.61
2024-04-18T06:58:16.012Z,30.88
2024-04-18T06:59:16.064Z,29.86
2024-04-18T07:00:16.102Z,29.79
2024-04-18T07:01:16.238Z,29.34
2024-04-18T07:02:16.261Z,29.48
2024-04-18T07:03:16.307Z,29.75
2024-04-18T07:04:16.381Z,29.66
2024-04-18T07:05:16.366Z,29.47
2024-04-18T07:06:16.399Z,29.15
2024-04-18T07:07:16.392Z,29.02
2024-04-18T07:08:16.433Z,29.23
2024-04-18T07:09:16.436Z,29.73
2024-04-18T07:10:16.476Z,29.48
2024-04-18T07:11:16.514Z,29.83
2024-04-18T07:12:16.520Z,29.53
2024-04-18T07:13:16.560Z,29.59
2024-04-18T07:14:16.586Z,29.33
2024-04-18T07:15:16.608Z,29.17
2024-04-18T07:16:16.664Z,29.18
2024-04-18T07:17:16.708Z,29.13
2024-04-18T07:18:16.790Z,29.26
2024-04-18T07:19:16.768Z,29.30
2024-04-18T07:20:16.745Z,29.12
2024-04-18T07:21:16.748Z,29.13
2024-04-18T07:22:16.787Z,29.17
2024-04-18T07:23:16.804Z,29.17
2024-04-18T07:24:16.840Z,28.94
2024-04-18T07:25:16.846Z,29.42
2024-04-18T07:26:16.884Z,28.92
2024-04-18T07:27:16.918Z,28.78
2024-04-18T07:28:16.924Z,28.89
2024-04-18T07:29:16.931Z,28.72
2024-04-18T07:30:17.131Z,28.82
2024-04-18T07:31:17.022Z,28.82
2024-04-18T07:32:17.096Z,28.57
2024-04-18T07:33:17.147Z,28.74
2024-04-18T07:34:17.202Z,28.70
2024-04-18T07:35:17.141Z,28.72
2024-04-18T07:36:17.200Z,29.06
2024-04-18T07:37:17.191Z,28.57
2024-04-18T07:38:17.253Z,28.49
2024-04-18T07:39:17.296Z,28.88
2024-04-18T07:40:17.313Z,28.88
2024-04-18T07:41:20.958Z,28.75
2024-04-18T07:42:17.336Z,28.67
2024-04-18T07:43:17.353Z,29.02
2024-04-18T07:44:20.023Z,28.56
2024-04-18T07:45:17.355Z,28.65
2024-04-18T07:46:20.940Z,28.20
2024-04-18T07:47:17.363Z,27.78
2024-04-18T07:48:17.492Z,27.39
2024-04-18T07:49:17.585Z,27.52
2024-04-18T07:50:17.342Z,27.80
2024-04-18T07:51:21.058Z,28.05
2024-04-18T07:52:17.888Z,28.13
2024-04-18T07:53:17.358Z,28.61
2024-04-18T07:54:17.368Z,28.09
2024-04-18T07:55:17.373Z,27.83
2024-04-18T07:56:21.392Z,28.05
2024-04-18T07:57:17.675Z,28.29
2024-04-18T07:58:17.749Z,28.15
2024-04-18T07:59:18.163Z,28.17
2024-04-18T08:00:18.178Z,28.02
2024-04-18T08:01:18.535Z,28.02
2024-04-18T08:02:19.271Z,28.03
2024-04-18T08:03:18.988Z,27.81
2024-04-18T08:04:34.986Z,27.63
2024-04-18T08:05:20.767Z,27.71
2024-04-18T08:06:20.785Z,27.90
2024-04-18T08:07:20.692Z,28.02
2024-04-18T08:08:19.662Z,27.90
2024-04-18T08:09:19.766Z,27.98
2024-04-18T08:10:20.378Z,28.17
2024-04-18T08:11:52.434Z,28.57
2024-04-18T08:12:26.646Z,28.66
2024-04-18T08:13:22.198Z,28.80
2024-04-18T08:14:22.400Z,28.46
2024-04-18T08:15:23.684Z,28.24
2024-04-18T08:16:19.327Z,28.71
2024-04-18T08:17:17.555Z,28.29
2024-04-18T08:18:17.443Z,28.10
2024-04-18T08:19:17.410Z,28.39
2024-04-18T08:20:17.445Z,28.89
2024-04-18T08:21:17.462Z,28.63
2024-04-18T08:22:17.453Z,29.22
2024-04-18T08:23:19.836Z,29.01
2024-04-18T08:24:17.634Z,28.84
2024-04-18T08:25:17.575Z,29.04
2024-04-18T08:26:17.670Z,28.83
2024-04-18T08:27:17.684Z,28.43
2024-04-18T08:28:17.700Z,28.43
2024-04-18T08:29:17.695Z,28.26
2024-04-18T08:30:17.784Z,28.30
2024-04-18T08:31:17.769Z,28.27
2024-04-18T08:32:17.822Z,28.16
2024-04-18T08:33:17.902Z,28.12
2024-04-18T08:34:18.915Z,28.33
2024-04-18T08:35:17.986Z,28.83
2024-04-18T08:36:18.024Z,28.57
2024-04-18T08:37:17.998Z,28.94
2024-04-18T08:38:18.032Z,28.67
2024-04-18T08:39:18.081Z,28.90
2024-04-18T08:40:18.126Z,29.18
2024-04-18T08:41:18.174Z,28.42
2024-04-18T08:42:18.263Z,28.39
2024-04-18T08:43:18.306Z,28.09
2024-04-18T08:44:18.336Z,27.70
2024-04-18T08:45:18.413Z,27.60
2024-04-18T08:46:18.445Z,27.57
2024-04-18T08:47:18.531Z,27.96
2024-04-18T08:48:18.686Z,28.66
2024-04-18T08:49:18.686Z,28.45
2024-04-18T08:50:18.605Z,28.06
2024-04-18T08:51:18.684Z,28.11
2024-04-18T08:52:18.714Z,28.02
2024-04-18T08:53:18.767Z,28.29
2024-04-18T08:54:18.846Z,29.06
2024-04-18T08:55:18.882Z,29.26
2024-04-18T08:56:18.893Z,29.74
2024-04-18T08:57:18.918Z,29.58
2024-04-18T08:58:18.982Z,30.18
2024-04-18T08:59:19.012Z,30.23
2024-04-18T09:00:19.062Z,29.78
2024-04-18T09:01:19.084Z,29.78
2024-04-18T09:02:19.106Z,29.82
2024-04-18T09:03:19.155Z,29.57
2024-04-18T09:04:19.213Z,29.48
2024-04-18T09:05:19.195Z,29.16
2024-04-18T09:06:19.238Z,28.80
2024-04-18T09:07:19.282Z,28.91
2024-04-18T09:08:19.313Z,28.93
2024-04-18T09:09:19.381Z,29.12
2024-04-18T09:10:19.369Z,28.59
2024-04-18T09:11:19.444Z,28.79
2024-04-18T09:12:19.458Z,28.88
2024-04-18T09:13:19.451Z,28.61
2024-04-18T09:14:19.483Z,28.50
2024-04-18T09:15:19.578Z,28.30
2024-04-18T09:16:19.540Z,28.44
2024-04-18T09:17:19.648Z,28.81
2024-04-18T09:18:19.830Z,28.68
2024-04-18T09:19:19.777Z,28.88
2024-04-18T09:20:19.670Z,28.62
2024-04-18T09:21:19.759Z,28.68
2024-04-18T09:22:19.761Z,28.53
2024-04-18T09:23:19.785Z,28.57
2024-04-18T09:24:19.835Z,28.52
2024-04-18T09:25:19.852Z,29.18
2024-04-18T09:26:19.865Z,29.35
2024-04-18T09:27:19.933Z,29.45
2024-04-18T09:28:19.921Z,30.24
2024-04-18T09:29:19.945Z,29.92
2024-04-18T09:30:19.995Z,30.11
2024-04-18T09:31:27.556Z,29.31
2024-04-18T09:32:21.002Z,29.47
2024-04-18T09:33:20.077Z,29.67
2024-04-18T09:34:20.076Z,30.22
2024-04-18T09:35:20.014Z,30.24
2024-04-18T09:36:20.022Z,31.09
2024-04-18T09:37:19.992Z,31.11
2024-04-18T09:38:19.988Z,31.39
2024-04-18T09:39:20.308Z,31.31
2024-04-18T09:40:20.007Z,31.07
2024-04-18T09:41:20.032Z,31.20
2024-04-18T09:42:20.026Z,31.46
2024-04-18T09:43:19.995Z,31.93
2024-04-18T09:44:19.999Z,32.06
2024-04-18T09:45:20.056Z,31.38
2024-04-18T09:46:20.019Z,31.47
2024-04-18T09:47:20.013Z,31.67
2024-04-18T09:48:20.109Z,31.21
2024-04-18T09:49:20.184Z,30.95
2024-04-18T09:50:20.027Z,30.74
2024-04-18T09:51:20.060Z,30.97
2024-04-18T09:52:20.038Z,30.87
2024-04-18T09:53:20.017Z,31.39
2024-04-18T09:54:20.129Z,31.30
2024-04-18T09:55:22.003Z,30.71
2024-04-18T09:56:20.006Z,30.89
2024-04-18T09:57:20.043Z,30.64
2024-04-18T09:58:20.019Z,30.76
2024-04-18T09:59:20.024Z,31.14
2024-04-18T10:00:20.049Z,30.89
2024-04-18T10:01:20.103Z,30.60
2024-04-18T10:02:20.053Z,30.31
2024-04-18T10:03:20.099Z,30.36
2024-04-18T10:04:20.078Z,30.23
2024-04-18T10:05:20.031Z,30.10
2024-04-18T10:06:20.069Z,30.23
2024-04-18T10:07:20.079Z,30.59
2024-04-18T10:08:20.032Z,30.41
2024-04-18T10:09:20.054Z,30.61
2024-04-18T10:10:20.036Z,30.46
2024-04-18T10:11:20.135Z,30.66
2024-04-18T10:12:20.049Z,30.65
2024-04-18T10:13:21.310Z,31.06
2024-04-18T10:14:20.030Z,33.25
2024-04-18T10:15:20.175Z,31.91
2024-04-18T10:16:20.166Z,31.32
2024-04-18T10:17:20.192Z,31.69
2024-04-18T10:18:20.351Z,31.23
2024-04-18T10:19:20.261Z,31.38
2024-04-18T10:20:20.254Z,30.98
2024-04-18T10:21:27.896Z,31.01
2024-04-18T10:22:29.536Z,30.98
2024-04-18T10:23:21.320Z,30.89
2024-04-18T10:24:20.420Z,30.87
2024-04-18T10:25:20.302Z,30.83
2024-04-18T10:26:20.298Z,30.82
2024-04-18T10:27:20.366Z,30.81
2024-04-18T10:28:20.307Z,30.81
2024-04-18T10:29:20.298Z,30.99
2024-04-18T10:30:20.333Z,30.73
2024-04-18T10:31:20.320Z,30.67
2024-04-18T10:32:20.361Z,30.60
2024-04-18T10:33:20.446Z,30.68
2024-04-18T10:34:20.325Z,30.73
2024-04-18T10:35:20.317Z,30.74
2024-04-18T10:36:20.346Z,30.80
2024-04-18T10:37:27.891Z,31.00
2024-04-18T10:38:27.903Z,30.77
2024-04-18T10:39:27.908Z,30.75
2024-04-18T10:40:27.879Z,30.68
2024-04-18T10:41:27.882Z,30.81
2024-04-18T10:42:27.917Z,30.83
2024-04-18T10:43:27.894Z,30.62
2024-04-18T10:44:27.909Z,30.64
2024-04-18T10:45:27.964Z,30.51
2024-04-18T10:46:27.914Z,30.49
2024-04-18T10:47:27.949Z,30.25
2024-04-18T10:48:28.035Z,30.26
2024-04-18T10:49:28.052Z,30.71
2024-04-18T10:50:30.101Z,30.98
2024-04-18T10:51:27.978Z,30.82
2024-04-18T10:52:27.901Z,31.07
2024-04-18T10:53:27.965Z,31.01
2024-04-18T10:54:28.089Z,31.38
2024-04-18T10:55:28.140Z,30.85
2024-04-18T10:56:30.117Z,30.72
2024-04-18T10:57:28.326Z,30.38
2024-04-18T10:58:28.273Z,30.69
2024-04-18T10:59:28.352Z,30.35
2024-04-18T11:00:28.470Z,30.12
2024-04-18T11:01:28.521Z,29.96
2024-04-18T11:02:30.003Z,30.10
2024-04-18T11:03:28.734Z,30.20
2024-04-18T11:04:28.825Z,30.50
2024-04-18T11:05:28.743Z,30.29
2024-04-18T11:06:28.818Z,30.36
2024-04-18T11:07:28.866Z,30.31
2024-04-18T11:08:31.203Z,30.85
2024-04-18T11:09:28.941Z,30.68
2024-04-18T11:10:28.924Z,30.34
2024-04-18T11:11:28.938Z,30.58
2024-04-18T11:12:28.974Z,30.70
2024-04-18T11:13:28.913Z,30.73
2024-04-18T11:14:28.927Z,30.15
2024-04-18T11:15:28.993Z,29.54
2024-04-18T11:16:28.979Z,29.86
2024-04-18T11:17:28.953Z,29.89
2024-04-18T11:18:29.091Z,29.93
2024-04-18T11:19:28.977Z,29.92
2024-04-18T11:20:30.701Z,29.73
2024-04-18T11:21:28.973Z,29.65
2024-04-18T11:22:28.929Z,29.77
2024-04-18T11:23:35.865Z,29.82
2024-04-18T11:24:30.139Z,29.61
2024-04-18T11:25:29.032Z,29.61
2024-04-18T11:26:30.343Z,29.57
2024-04-18T11:27:29.031Z,29.56
2024-04-18T11:28:29.003Z,30.13
2024-04-18T11:29:29.369Z,30.27
2024-04-18T11:30:29.083Z,30.74
2024-04-18T11:31:29.197Z,30.58
2024-04-18T11:32:30.754Z,30.31
2024-04-18T11:33:29.085Z,30.24
2024-04-18T11:34:29.012Z,29.51
2024-04-18T11:35:29.051Z,29.08
2024-04-18T11:36:29.072Z,28.50
2024-04-18T11:37:29.019Z,28.55
2024-04-18T11:38:30.430Z,28.47
2024-04-18T11:39:29.102Z,28.29
2024-04-18T11:40:29.016Z,28.44
2024-04-18T11:41:29.021Z,28.19
2024-04-18T11:42:29.052Z,28.46
2024-04-18T11:43:29.024Z,28.66
2024-04-18T11:44:30.483Z,29.51
2024-04-18T11:45:29.087Z,29.25
2024-04-18T11:46:29.028Z,28.97
2024-04-18T11:47:29.121Z,29.25
2024-04-18T11:48:29.208Z,29.80
2024-04-18T11:49:29.210Z,29.98
2024-04-18T11:50:29.078Z,30.09
2024-04-18T11:51:29.066Z,29.37
2024-04-18T11:52:29.066Z,29.83
2024-04-18T11:53:29.097Z,29.82
2024-04-18T11:54:29.117Z,29.91
2024-04-18T11:55:29.056Z,29.87
2024-04-18T11:56:29.074Z,29.96
2024-04-18T11:57:29.097Z,29.70
2024-04-18T11:58:29.077Z,29.46
2024-04-18T11:59:29.062Z,29.97
2024-04-18T12:00:29.120Z,29.72
2024-04-18T12:01:29.079Z,29.40
2024-04-18T12:02:29.078Z,29.93
2024-04-18T12:03:29.128Z,29.37
2024-04-18T12:04:29.158Z,29.13
2024-04-18T12:05:29.070Z,29.41
2024-04-18T12:06:29.122Z,29.47
2024-04-18T12:07:29.065Z,29.61
2024-04-18T12:08:29.095Z,29.01
2024-04-18T12:09:29.166Z,29.85
2024-04-18T12:10:29.183Z,29.46
2024-04-18T12:11:29.246Z,29.47
2024-04-18T12:12:29.275Z,29.39
2024-04-18T12:13:29.373Z,29.56
2024-04-18T12:14:29.323Z,29.78
2024-04-18T12:15:29.416Z,29.75
2024-04-18T12:16:29.483Z,29.71
2024-04-18T12:17:29.526Z,29.67
2024-04-18T12:18:29.467Z,30.02
2024-04-18T12:19:29.444Z,29.86
2024-04-18T12:20:29.507Z,29.86
2024-04-18T12:21:29.545Z,29.86
2024-04-18T12:22:29.553Z,29.77
2024-04-18T12:23:29.575Z,29.80
2024-04-18T12:24:29.714Z,30.08
2024-04-18T12:25:29.659Z,30.10
2024-04-18T12:26:29.684Z,29.84
2024-04-18T12:27:29.746Z,29.81
2024-04-18T12:28:29.744Z,30.45
2024-04-18T12:29:29.779Z,30.00
2024-04-18T12:30:30.476Z,30.07
2024-04-18T12:31:29.852Z,30.11
2024-04-18T12:32:29.945Z,30.71
2024-04-18T12:33:29.984Z,31.15
2024-04-18T12:34:29.975Z,30.66
2024-04-18T12:35:29.983Z,30.76
2024-04-18T12:36:30.169Z,30.30
2024-04-18T12:37:30.069Z,29.80
2024-04-18T12:38:30.101Z,30.29
2024-04-18T12:39:30.145Z,31.02
2024-04-18T12:40:30.150Z,30.46
2024-04-18T12:41:30.193Z,30.76
2024-04-18T12:42:30.274Z,30.46
2024-04-18T12:43:30.258Z,30.46
2024-04-18T12:44:31.842Z,30.38
2024-04-18T12:45:30.328Z,30.63
2024-04-18T12:46:30.549Z,30.63
2024-04-18T12:47:30.459Z,30.90
2024-04-18T12:48:30.484Z,30.69
2024-04-18T12:49:30.529Z,30.51
2024-04-18T12:50:30.520Z,30.54
2024-04-18T12:51:30.634Z,30.49
2024-04-18T12:52:30.644Z,30.52
2024-04-18T12:53:30.682Z,30.33